Time;durP1;ratioP1;P1;durP2;ratioP2;P2;SDS_P1;SDS_P2;PMS_P1;PMS_P2;Temp;Humidity;BMP_temperature;BMP_pressure;BME280_temperature;BME280_humidity;BME280_pressure;Samples;Min_cycle;Max_cycle;Signal;HPM_P1;HPM_P2
2021/10/11 00:02:13;;;;;;;25.88;12.85;;;;;;;0.49;62.97;101811.06;1595591;89;21119;-72
2021/10/11 00:04:39;;;;;;;31.82;15.32;;;;;;;0.45;63.00;101811.73;1588047;89;21111;-72
2021/10/11 00:07:08;;;;;;;28.30;14.05;;;;;;;0.40;63.04;101816.61;1584202;88;21120;-72
2021/10/11 00:09:33;;;;;;;29.42;14.23;;;;;;;0.37;63.10;101812.66;1577423;89;21096;-72
2021/10/11 00:12:00;;;;;;;;;;;;;;;0.36;63.19;101815.14;1591512;89;418575;-72
2021/10/11 00:14:26;;;;;;;24.95;12.75;;;;;;;0.35;63.63;101815.53;1595746;89;20205;-72
2021/10/11 00:16:53;;;;;;;21.12;13.48;;;;;;;0.36;63.33;101814.73;1589574;89;24472;-72
2021/10/11 00:19:19;;;;;;;30.80;14.75;;;;;;;0.38;63.31;101807.17;1595491;89;28268;-72
2021/10/11 00:21:46;;;;;;;;;;;;;;;0.35;63.26;101802.81;1596924;89;21104;-72
2021/10/11 00:24:12;;;;;;;27.42;13.58;;;;;;;0.31;63.67;101798.00;1592716;88;20215;-72
2021/10/11 00:26:45;;;;;;;24.30;12.88;;;;;;;0.31;63.34;101800.94;1591594;89;21084;-72
2021/10/11 00:29:11;;;;;;;28.27;13.85;;;;;;;0.26;63.25;101798.19;1578392;89;21104;-72
2021/10/11 00:31:37;;;;;;;31.90;13.98;;;;;;;0.23;63.46;101796.78;1579749;89;21093;-72
2021/10/11 00:34:03;;;;;;;25.17;13.58;;;;;;;0.22;63.42;101795.44;1608759;88;21077;-72
2021/10/11 00:36:29;;;;;;;30.75;13.83;;;;;;;0.22;63.40;101790.36;1648367;86;21109;-72
2021/10/11 00:38:56;;;;;;;29.15;13.65;;;;;;;0.17;63.44;101789.28;1643816;86;21038;-72
2021/10/11 00:41:22;;;;;;;23.95;13.18;;;;;;;0.16;63.52;101795.16;1639177;86;21025;-72
2021/10/11 00:43:48;;;;;;;30.60;14.50;;;;;;;0.17;63.64;101782.92;1644221;86;21097;-72
2021/10/11 00:46:14;;;;;;;28.00;14.85;;;;;;;0.16;63.63;101780.78;1605132;88;21051;-72
2021/10/11 00:48:40;;;;;;;23.55;11.40;;;;;;;0.15;63.76;101777.77;1634133;86;21120;-72
2021/10/11 00:51:07;;;;;;;27.07;13.78;;;;;;;0.21;63.84;101775.89;1638500;86;20989;-72
2021/10/11 00:53:35;;;;;;;24.25;13.38;;;;;;;0.22;63.74;101769.61;1639128;86;20909;-72
2021/10/11 00:56:01;;;;;;;28.98;13.65;;;;;;;0.20;63.73;101767.39;1639049;86;21024;-72
2021/10/11 00:58:27;;;;;;;27.45;13.50;;;;;;;0.20;63.77;101766.52;1630773;86;21698;-72
2021/10/11 01:00:56;;;;;;;30.02;15.30;;;;;;;0.20;63.73;101763.58;1612930;87;21053;-72
2021/10/11 01:03:23;;;;;;;31.50;13.85;;;;;;;0.18;63.72;101765.19;1637715;86;21053;-72
2021/10/11 01:05:48;;;;;;;;;;;;;;;0.16;63.73;101757.89;1611451;88;21090;-72
2021/10/11 01:08:16;;;;;;;26.73;15.90;;;;;;;0.12;64.01;101751.33;1591451;88;20257;-72
2021/10/11 01:10:46;;;;;;;30.50;16.15;;;;;;;0.11;63.84;101748.31;1648758;85;20867;-72
2021/10/11 01:13:12;;;;;;;30.30;16.48;;;;;;;0.11;63.91;101739.41;1637576;86;20985;-72
2021/10/11 01:15:38;;;;;;;29.27;15.70;;;;;;;0.10;63.98;101734.73;1643802;86;20905;-72
2021/10/11 01:18:04;;;;;;;26.57;14.87;;;;;;;0.07;63.91;101731.18;1648585;86;20899;-72
2021/10/11 01:20:30;;;;;;;29.48;14.25;;;;;;;0.05;63.98;101728.56;1641161;86;20874;-72
2021/10/11 01:22:56;;;;;;;30.05;15.03;;;;;;;0.06;63.98;101727.77;1639295;86;20923;-72
2021/10/11 01:25:41;;;;;;;27.40;14.68;;;;;;;0.02;64.03;101728.83;1616378;87;20953;-72
2021/10/11 01:28:13;;;;;;;28.95;14.68;;;;;;;0.04;64.15;101724.69;1641103;85;20905;-72
2021/10/11 01:30:40;;;;;;;27.02;13.95;;;;;;;0.04;64.05;101720.88;1575952;88;42807;-72
2021/10/11 01:33:09;;;;;;;30.10;15.30;;;;;;;0.00;64.17;101722.44;1612839;88;20902;-72
2021/10/11 01:35:34;;;;;;;29.98;15.43;;;;;;;0.04;64.37;101715.39;1646573;86;21045;-72
2021/10/11 01:38:00;;;;;;;28.65;14.80;;;;;;;0.06;64.23;101715.45;1636591;86;21128;-72
2021/10/11 01:40:26;;;;;;;25.02;13.70;;;;;;;0.07;64.25;101712.11;1644711;86;21702;-72
2021/10/11 01:42:52;;;;;;;24.63;13.70;;;;;;;0.05;64.27;101711.17;1625498;86;20917;-72
2021/10/11 01:45:19;;;;;;;24.43;14.85;;;;;;;0.04;64.34;101714.11;1635216;85;21063;-72
2021/10/11 01:47:45;;;;;;;23.60;12.93;;;;;;;0.06;64.47;101706.55;1644870;86;21057;-72
2021/10/11 01:50:11;;;;;;;23.38;13.55;;;;;;;0.08;64.48;101707.49;1603386;88;21045;-72
2021/10/11 01:52:40;;;;;;;25.45;14.55;;;;;;;0.10;64.47;101694.05;1644540;86;23252;-72
2021/10/11 01:55:06;;;;;;;26.15;13.78;;;;;;;0.09;64.43;101690.16;1640733;85;20922;-72
2021/10/11 01:57:33;;;;;;;21.50;12.53;;;;;;;0.08;64.40;101687.15;1648400;86;20941;-72
2021/10/11 01:59:59;;;;;;;25.62;13.48;;;;;;;0.03;64.42;101693.30;1628856;86;21468;-72
2021/10/11 02:02:31;;;;;;;23.20;13.48;;;;;;;0.03;64.46;101689.49;1643920;86;21076;-72
2021/10/11 02:04:57;;;;;;;24.90;13.95;;;;;;;0.05;64.55;101687.02;1632413;85;20909;-72
2021/10/11 02:07:23;;;;;;;30.35;15.13;;;;;;;0.06;64.62;101684.94;1632578;86;21473;-72
2021/10/11 02:09:49;;;;;;;26.42;13.80;;;;;;;0.05;64.60;101678.98;1622163;87;20905;-72
2021/10/11 02:12:16;;;;;;;26.93;13.40;;;;;;;0.04;64.65;101673.44;1635123;86;20891;-72
2021/10/11 02:14:44;;;;;;;25.55;13.95;;;;;;;0.04;64.63;101673.44;1623995;87;21682;-72
2021/10/11 02:17:10;;;;;;;23.35;13.50;;;;;;;0.03;64.63;101671.69;1598372;85;25189;-72
2021/10/11 02:19:36;;;;;;;25.30;13.55;;;;;;;0.03;64.68;101673.36;1593877;89;21668;-72
2021/10/11 02:22:03;;;;;;;32.35;13.43;;;;;;;0.03;64.69;101661.52;1596972;89;21780;-72
2021/10/11 02:24:28;;;;;;;29.85;13.50;;;;;;;0.01;64.71;101656.77;1594802;89;20923;-72
2021/10/11 02:26:54;;;;;;;22.73;11.03;;;;;;;0.02;64.77;101653.42;1586983;89;21041;-72
2021/10/11 02:29:20;;;;;;;27.63;14.00;;;;;;;0.03;64.87;101648.81;1590354;89;20868;-72
2021/10/11 02:31:47;;;;;;;23.75;13.50;;;;;;;0.05;64.80;101647.60;1594680;88;21190;-72
2021/10/11 02:34:13;;;;;;;25.45;15.03;;;;;;;0.02;64.79;101641.12;1598000;89;20915;-72
2021/10/11 02:36:39;;;;;;;26.33;14.03;;;;;;;0.03;64.89;101642.45;1572618;90;20937;-72
2021/10/11 02:39:06;;;;;;;24.02;14.78;;;;;;;-0.01;64.78;101642.75;1586934;88;20986;-72
2021/10/11 02:41:32;;;;;;;27.65;14.73;;;;;;;-0.01;64.97;101641.89;1583447;89;21013;-72
2021/10/11 02:43:58;;;;;;;27.20;15.25;;;;;;;-0.01;64.99;101640.22;1599967;88;20954;-73
2021/10/11 02:46:24;;;;;;;29.63;15.45;;;;;;;-0.02;65.07;101635.94;1601998;89;21372;-73
2021/10/11 02:48:50;;;;;;;18.50;10.93;;;;;;;0.02;65.14;101635.62;1599295;87;21609;-73
2021/10/11 02:51:17;;;;;;;25.32;13.25;;;;;;;0.05;65.17;101638.70;1591630;89;21167;-73
2021/10/11 02:53:49;;;;;;;26.68;14.43;;;;;;;0.03;65.04;101638.64;1600698;88;20907;-73
2021/10/11 02:56:11;;;;;;;21.02;13.35;;;;;;;0.01;65.06;101635.16;1604870;88;21037;-73
2021/10/11 02:58:38;;;;;;;27.65;14.53;;;;;;;-0.02;65.08;101620.67;1589471;89;21136;-73
2021/10/11 03:01:04;;;;;;;25.40;12.70;;;;;;;-0.01;65.14;101622.41;1592355;89;21129;-72
2021/10/11 03:03:30;;;;;;;24.55;14.25;;;;;;;-0.03;65.04;101618.07;1592830;89;21049;-72
2021/10/11 03:05:56;;;;;;;27.37;13.57;;;;;;;-0.08;65.08;101619.14;1593001;88;20923;-72
2021/10/11 03:08:22;;;;;;;24.93;13.60;;;;;;;-0.10;65.12;101613.52;1601152;88;21010;-72
2021/10/11 03:10:48;;;;;;;24.90;13.63;;;;;;;-0.13;65.13;101608.31;1601693;89;21026;-72
2021/10/11 03:13:14;;;;;;;25.68;14.40;;;;;;;-0.16;65.12;101602.69;1588770;88;21069;-72
2021/10/11 03:15:40;;;;;;;28.20;15.37;;;;;;;-0.20;65.09;101599.55;1607379;89;20911;-72
2021/10/11 03:18:06;;;;;;;30.57;15.05;;;;;;;-0.26;65.14;101601.82;1602956;88;20927;-72
2021/10/11 03:20:32;;;;;;;19.82;11.18;;;;;;;-0.29;65.20;101601.69;1604521;89;21140;-72
2021/10/11 03:22:58;;;;;;;27.75;15.08;;;;;;;-0.29;65.26;101598.28;1598887;88;21097;-72
2021/10/11 03:25:24;;;;;;;27.65;14.87;;;;;;;-0.31;65.24;101589.31;1606889;89;21168;-72
2021/10/11 03:27:50;;;;;;;26.17;15.08;;;;;;;-0.33;65.28;101582.03;1602936;89;20959;-72
2021/10/11 03:30:17;;;;;;;24.30;14.85;;;;;;;-0.34;65.32;101576.08;1597540;87;21089;-72
2021/10/11 03:32:43;;;;;;;25.43;12.18;;;;;;;-0.36;65.32;101577.68;1595708;89;21065;-72
2021/10/11 03:35:09;;;;;;;26.70;14.47;;;;;;;-0.39;65.27;101576.28;1599045;89;21123;-72
2021/10/11 03:37:37;;;;;;;29.60;15.25;;;;;;;-0.42;65.26;101568.92;1595007;89;21137;-72
2021/10/11 03:40:04;;;;;;;29.35;16.07;;;;;;;-0.45;65.27;101568.39;1587116;89;20975;-72
2021/10/11 03:42:30;;;;;;;31.15;16.15;;;;;;;-0.48;65.40;101565.71;1597105;89;21145;-72
2021/10/11 03:44:59;;;;;;;29.63;15.58;;;;;;;-0.49;65.36;101552.54;1604667;88;21136;-72
2021/10/11 03:47:25;;;;;;;24.65;15.20;;;;;;;-0.51;65.42;101537.63;1596509;88;20907;-72
2021/10/11 03:49:51;;;;;;;31.37;15.78;;;;;;;-0.53;65.38;101540.94;1588012;89;21045;-72
2021/10/11 03:52:17;;;;;;;25.57;14.73;;;;;;;-0.57;65.38;101541.61;1597580;88;21085;-72
2021/10/11 03:54:43;;;;;;;31.17;15.93;;;;;;;-0.60;65.39;101532.19;1590271;88;20923;-72
2021/10/11 03:57:09;;;;;;;30.70;15.78;;;;;;;-0.62;65.42;101531.65;1607410;88;20874;-72
2021/10/11 03:59:35;;;;;;;;;;;;;;;-0.64;65.49;101524.36;1591623;89;21101;-72
2021/10/11 04:02:02;;;;;;;26.07;15.08;;;;;;;-0.67;65.77;101523.83;1597316;88;20487;-72
2021/10/11 04:04:28;;;;;;;31.87;16.93;;;;;;;-0.69;65.63;101519.08;1588655;88;21077;-72
2021/10/11 04:06:56;;;;;;;31.20;16.77;;;;;;;-0.69;65.70;101521.63;1590738;88;21090;-72
2021/10/11 04:09:29;;;;;;;33.00;17.55;;;;;;;-0.70;65.74;101518.21;1591624;89;21108;-72
2021/10/11 04:11:55;;;;;;;29.63;16.67;;;;;;;-0.69;65.77;101516.14;1596948;89;21075;-72
2021/10/11 04:14:26;;;;;;;29.72;16.17;;;;;;;-0.65;65.86;101519.69;1593255;89;21105;-72
2021/10/11 04:16:52;;;;;;;32.23;15.88;;;;;;;-0.64;65.86;101517.61;1593895;89;20998;-72
2021/10/11 04:19:21;;;;;;;29.35;16.25;;;;;;;-0.61;65.87;101519.42;1595051;89;20910;-70
2021/10/11 04:21:47;;;;;;;32.40;16.93;;;;;;;-0.59;65.91;101514.00;1595347;88;20926;-70
2021/10/11 04:24:14;;;;;;;31.20;16.07;;;;;;;-0.56;65.94;101505.25;1597588;89;20970;-70
2021/10/11 04:26:40;;;;;;;34.33;17.05;;;;;;;-0.58;65.84;101502.64;1580250;90;20966;-70
2021/10/11 04:29:06;;;;;;;26.45;15.40;;;;;;;-0.60;65.82;101508.06;1582733;89;21436;-70
2021/10/11 04:31:32;;;;;;;;;;;;;;;-0.63;65.82;101506.66;1600698;89;20938;-70
2021/10/11 04:33:58;;;;;;;35.23;16.70;;;;;;;-0.66;66.10;101505.25;1584850;89;20182;-69
2021/10/11 04:36:25;;;;;;;32.20;16.45;;;;;;;-0.64;66.01;101501.11;1580148;89;20882;-70
2021/10/11 04:38:53;;;;;;;28.62;16.20;;;;;;;-0.62;66.03;101492.28;1576654;88;20978;-69
2021/10/11 04:41:19;;;;;;;33.13;16.80;;;;;;;-0.64;65.90;101483.73;1584137;90;20948;-69
2021/10/11 04:43:45;;;;;;;36.28;16.35;;;;;;;-0.67;65.95;101475.58;1582724;90;20982;-69
2021/10/11 04:46:11;;;;;;;33.78;15.88;;;;;;;-0.70;65.96;101471.23;1585740;89;20989;-69
2021/10/11 04:48:37;;;;;;;31.95;16.23;;;;;;;-0.71;65.92;101474.58;1579418;90;21001;-70
2021/10/11 04:51:03;;;;;;;27.25;16.10;;;;;;;-0.74;65.96;101471.03;1581739;90;20994;-69
2021/10/11 04:53:29;;;;;;;37.28;19.12;;;;;;;-0.76;66.03;101472.23;1565145;90;20950;-69
2021/10/11 04:55:55;;;;;;;36.88;18.45;;;;;;;-0.76;66.08;101466.29;1576588;89;20994;-69
2021/10/11 04:58:22;;;;;;;34.18;18.95;;;;;;;-0.76;66.23;101467.16;1565096;90;20982;-70
2021/10/11 05:00:48;;;;;;;34.88;18.00;;;;;;;-0.74;66.32;101469.36;1603151;89;20958;-70
2021/10/11 05:03:14;;;;;;;35.07;18.17;;;;;;;-0.70;66.40;101466.56;1602614;88;21447;-70
2021/10/11 05:05:42;;;;;;;34.33;17.77;;;;;;;-0.67;66.35;101466.69;1594002;89;22227;-70
2021/10/11 05:08:08;;;;;;;36.33;18.05;;;;;;;-0.65;66.35;101468.89;1576686;89;22547;-70
2021/10/11 05:10:34;;;;;;;37.70;18.05;;;;;;;-0.64;66.32;101465.55;1564527;90;21023;-70
2021/10/11 05:13:01;;;;;;;36.73;18.52;;;;;;;-0.63;66.38;101470.23;1560572;90;20969;-70
2021/10/11 05:15:27;;;;;;;31.52;18.12;;;;;;;-0.61;66.41;101472.03;1559133;90;21164;-70
2021/10/11 05:17:53;;;;;;;35.63;18.57;;;;;;;-0.57;66.51;101470.09;1562876;90;22105;-70
2021/10/11 05:20:20;;;;;;;34.05;17.12;;;;;;;-0.51;66.57;101465.23;1562015;90;21072;-70
2021/10/11 05:22:46;;;;;;;33.23;17.50;;;;;;;-0.46;66.55;101460.35;1558979;90;21059;-69
2021/10/11 05:25:12;;;;;;;37.75;17.17;;;;;;;-0.44;66.56;101457.07;1563973;90;22214;-69
2021/10/11 05:27:38;;;;;;;33.10;17.45;;;;;;;-0.39;66.58;101464.48;1559213;90;21146;-69
2021/10/11 05:30:06;;;;;;;32.73;17.95;;;;;;;-0.35;66.63;101466.34;1549267;90;21099;-69
2021/10/11 05:32:33;;;;;;;32.98;18.45;;;;;;;-0.28;66.68;101469.14;1574586;90;20984;-69
2021/10/11 05:35:00;;;;;;;40.95;20.17;;;;;;;-0.23;66.79;101467.27;1563454;90;20908;-69
2021/10/11 05:37:27;;;;;;;36.30;18.65;;;;;;;-0.15;66.84;101465.91;1566906;90;21755;-69
2021/10/11 05:39:54;;;;;;;38.02;19.75;;;;;;;-0.04;66.91;101472.70;1560958;89;21508;-69
2021/10/11 05:42:20;;;;;;;39.80;19.57;;;;;;;0.09;67.02;101468.54;1572637;89;20976;-69
2021/10/11 05:44:46;;;;;;;39.38;20.48;;;;;;;0.28;67.22;101462.51;1571803;89;21481;-69
2021/10/11 05:47:12;;;;;;;34.13;19.37;;;;;;;0.46;67.26;101458.14;1577588;89;27964;-69
2021/10/11 05:49:42;;;;;;;37.70;20.50;;;;;;;0.64;67.30;101461.75;1577380;89;21580;-69
2021/10/11 05:52:08;;;;;;;40.35;18.82;;;;;;;0.79;67.30;101461.05;1564377;89;20972;-69
2021/10/11 05:54:34;;;;;;;38.25;19.40;;;;;;;0.93;67.29;101463.70;1577072;89;21019;-69
2021/10/11 05:57:00;;;;;;;35.70;19.98;;;;;;;1.09;67.35;101472.73;1563187;89;20908;-69
2021/10/11 05:59:26;;;;;;;35.45;19.10;;;;;;;1.25;67.41;101474.16;1569323;89;21521;-69
2021/10/11 06:01:52;;;;;;;35.08;18.92;;;;;;;1.43;67.50;101470.98;1569869;89;21465;-69
2021/10/11 06:04:19;;;;;;;34.15;18.15;;;;;;;1.63;67.50;101471.63;1565237;90;21409;-70
2021/10/11 06:06:45;;;;;;;34.98;19.42;;;;;;;1.85;67.58;101464.30;1574340;90;21350;-70
2021/10/11 06:09:11;;;;;;;33.70;21.17;;;;;;;2.07;67.63;101454.39;1564203;89;20913;-70
2021/10/11 06:11:39;;;;;;;35.17;21.00;;;;;;;2.26;67.62;101458.81;1564658;90;20987;-70
2021/10/11 06:14:05;;;;;;;36.17;20.15;;;;;;;2.46;67.74;101462.39;1571777;89;21041;-70
2021/10/11 06:16:31;;;;;;;38.75;19.70;;;;;;;2.69;67.79;101457.53;1570906;90;21016;-69
2021/10/11 06:18:57;;;;;;;31.45;18.82;;;;;;;2.91;67.81;101455.19;1562108;90;20981;-69
2021/10/11 06:21:23;;;;;;;36.67;20.73;;;;;;;3.11;67.87;101460.87;1561165;90;22108;-69
2021/10/11 06:23:51;;;;;;;40.48;22.05;;;;;;;3.40;68.00;101459.08;1563439;90;22204;-69
2021/10/11 06:26:17;;;;;;;31.37;19.70;;;;;;;3.71;68.02;101466.69;1572544;90;21394;-70
2021/10/11 06:28:43;;;;;;;32.80;20.57;;;;;;;4.00;68.04;101464.86;1564859;90;21390;-70
2021/10/11 06:31:11;;;;;;;34.75;20.27;;;;;;;4.29;68.13;101458.71;1569084;89;21531;-70
2021/10/11 06:33:37;;;;;;;35.43;20.48;;;;;;;4.56;68.03;101459.75;1563692;90;21012;-70
2021/10/11 06:36:04;;;;;;;33.60;21.53;;;;;;;4.82;68.17;101464.13;1575773;90;22791;-70
2021/10/11 06:38:30;;;;;;;38.78;20.68;;;;;;;5.13;68.12;101464.34;1566239;89;21410;-70
2021/10/11 06:40:56;;;;;;;39.67;21.93;;;;;;;5.39;68.06;101463.53;1568123;90;21719;-70
2021/10/11 06:43:28;;;;;;;38.70;22.85;;;;;;;5.56;68.02;101460.86;1571690;90;21409;-70
2021/10/11 06:45:54;;;;;;;40.08;23.57;;;;;;;5.73;67.91;101461.55;1566941;90;21617;-70
2021/10/11 06:48:21;;;;;;;40.93;24.47;;;;;;;5.79;67.86;101460.37;1565353;89;20961;-70
2021/10/11 06:50:47;;;;;;;;;;;;;;;5.81;67.84;101450.57;1573790;89;21016;-70
2021/10/11 06:53:13;;;;;;;36.48;20.88;;;;;;;5.82;67.86;101445.89;1563132;90;20941;-70
2021/10/11 06:55:40;;;;;;;38.90;21.52;;;;;;;5.82;67.76;101439.47;1563711;90;21127;-70
2021/10/11 06:58:09;;;;;;;41.05;22.77;;;;;;;5.81;67.71;101436.45;1562881;89;21765;-70
2021/10/11 07:00:36;;;;;;;41.27;23.17;;;;;;;5.77;67.77;101437.66;1556756;90;22497;-70
2021/10/11 07:03:05;;;;;;;40.17;23.27;;;;;;;5.74;67.78;101434.63;1567030;89;22246;-70
2021/10/11 07:05:32;;;;;;;44.83;22.80;;;;;;;5.72;67.79;101446.56;1556768;90;21075;-70
2021/10/11 07:07:59;;;;;;;43.68;23.35;;;;;;;5.70;67.80;101440.58;1569160;89;21668;-70
2021/10/11 07:10:26;;;;;;;42.13;22.75;;;;;;;5.68;67.71;101448.67;1565423;89;21008;-70
2021/10/11 07:12:52;;;;;;;46.83;23.75;;;;;;;5.63;67.78;101460.55;1561477;90;22334;-70
2021/10/11 07:15:22;;;;;;;48.90;24.83;;;;;;;5.59;67.82;101453.22;1561247;90;22605;-70
2021/10/11 07:17:48;;;;;;;44.90;23.47;;;;;;;5.57;67.83;101431.80;1569431;90;20981;-70
2021/10/11 07:20:14;;;;;;;43.85;25.45;;;;;;;5.54;67.78;101435.59;1561133;90;21428;-70
2021/10/11 07:22:40;;;;;;;49.48;24.72;;;;;;;5.54;67.91;101448.84;1565610;90;21375;-69
2021/10/11 07:25:07;;;;;;;48.50;24.77;;;;;;;5.53;67.92;101432.59;1565948;90;21201;-70
2021/10/11 07:27:33;;;;;;;42.15;22.95;;;;;;;5.53;67.94;101424.02;1560906;90;21403;-70
2021/10/11 07:30:03;;;;;;;44.40;23.70;;;;;;;5.52;67.93;101430.86;1558207;90;20993;-70
2021/10/11 07:32:31;;;;;;;38.10;23.38;;;;;;;5.54;67.93;101419.34;1561040;90;20949;-70
2021/10/11 07:34:57;;;;;;;47.23;24.82;;;;;;;5.57;67.95;101420.68;1574942;89;20980;-70
2021/10/11 07:37:23;;;;;;;44.45;25.23;;;;;;;5.58;67.98;101424.97;1560111;90;21015;-70
2021/10/11 07:39:49;;;;;;;44.70;24.90;;;;;;;5.60;68.04;101420.31;1556947;90;20977;-70
2021/10/11 07:42:15;;;;;;;50.58;25.23;;;;;;;5.63;68.00;101415.66;1564718;90;20901;-70
2021/10/11 07:44:41;;;;;;;45.43;25.23;;;;;;;5.66;67.98;101411.86;1566866;90;20925;-70
2021/10/11 07:47:07;;;;;;;48.37;25.97;;;;;;;5.69;68.00;101400.78;1547039;90;21396;-70
2021/10/11 07:49:33;;;;;;;40.40;24.30;;;;;;;5.76;68.09;101393.59;1567276;90;20969;-70
2021/10/11 07:52:01;;;;;;;46.77;24.60;;;;;;;5.83;68.11;101384.73;1564764;90;20925;-70
2021/10/11 07:54:28;;;;;;;46.23;23.42;;;;;;;5.90;68.11;101390.44;1570965;90;20921;-70
2021/10/11 07:56:54;;;;;;;41.05;22.65;;;;;;;5.96;68.06;101390.54;1576489;89;20944;-70
2021/10/11 07:59:20;;;;;;;42.85;23.80;;;;;;;6.05;68.08;101397.52;1568071;90;20985;-70
2021/10/11 08:01:46;;;;;;;43.23;22.60;;;;;;;6.12;68.17;101401.91;1560882;90;21754;-70
2021/10/11 08:04:12;;;;;;;41.47;23.27;;;;;;;6.19;68.09;101404.14;1574842;90;20923;-70
2021/10/11 08:06:38;;;;;;;40.93;22.67;;;;;;;6.22;68.09;101388.78;1574018;89;20996;-70
2021/10/11 08:09:04;;;;;;;35.63;22.58;;;;;;;6.25;68.11;101393.92;1559052;89;21075;-70
2021/10/11 08:11:31;;;;;;;44.27;23.35;;;;;;;6.30;68.15;101396.14;1574521;90;21091;-70
2021/10/11 08:13:58;;;;;;;45.40;23.42;;;;;;;6.33;68.13;101394.90;1567171;89;21083;-70
2021/10/11 08:16:25;;;;;;;41.55;21.80;;;;;;;6.37;68.14;101384.24;1560947;90;21064;-70
2021/10/11 08:18:51;;;;;;;41.70;24.32;;;;;;;6.42;68.22;101385.17;1559983;90;21124;-70
2021/10/11 08:21:17;;;;;;;42.60;23.00;;;;;;;6.42;68.22;101385.17;1571612;90;20997;-70
2021/10/11 08:23:44;;;;;;;;;;;;;;;6.44;68.12;101384.34;1564753;90;21064;-70
2021/10/11 08:26:11;;;;;;;43.80;21.70;;;;;;;6.46;68.36;101392.94;1545240;90;20289;-70
2021/10/11 08:28:38;;;;;;;44.90;23.87;;;;;;;6.49;68.21;101386.55;1569640;89;21738;-70
2021/10/11 08:31:05;;;;;;;44.88;24.07;;;;;;;6.53;68.25;101382.32;1570369;90;21080;-70
2021/10/11 08:33:31;;;;;;;;;;;;;;;6.56;68.25;101383.22;1568096;90;21144;-70
2021/10/11 08:36:17;;;;;;;41.20;23.20;;;;;;;6.63;68.53;101390.59;1562349;90;20235;-70
2021/10/11 08:38:43;;;;;;;42.80;23.15;;;;;;;6.71;68.34;101381.69;1564166;90;21099;-70
2021/10/11 08:41:11;;;;;;;45.17;24.82;;;;;;;6.78;68.33;101383.03;1568064;89;20871;-70
2021/10/11 08:43:39;;;;;;;38.92;24.10;;;;;;;6.86;68.29;101385.70;1560883;90;21087;-70
2021/10/11 08:46:06;;;;;;;42.70;25.97;;;;;;;6.92;68.29;101387.05;1577192;89;21133;-70
2021/10/11 08:48:34;;;;;;;41.73;25.10;;;;;;;6.96;68.30;101381.97;1560093;89;21151;-70
2021/10/11 08:51:09;;;;;;;41.83;25.37;;;;;;;7.01;68.29;101382.44;1573464;90;21011;-70
2021/10/11 08:53:36;;;;;;;42.35;23.95;;;;;;;7.08;68.28;101390.66;1569777;90;20973;-70
2021/10/11 08:56:04;;;;;;;43.50;24.25;;;;;;;7.14;68.27;101390.30;1572269;89;20932;-70
2021/10/11 08:58:45;;;;;;;39.88;23.30;;;;;;;7.20;68.26;101389.50;1563977;90;20952;-70
2021/10/11 09:01:12;;;;;;;39.58;24.47;;;;;;;7.23;68.29;101387.83;1566783;90;20969;-70
2021/10/11 09:03:39;;;;;;;40.10;23.85;;;;;;;7.30;68.26;101376.72;1569274;90;20930;-70
2021/10/11 09:06:09;;;;;;;39.30;22.75;;;;;;;7.37;68.34;101381.50;1567704;90;20989;-70
2021/10/11 09:08:36;;;;;;;39.67;21.77;;;;;;;7.46;68.33;101375.15;1572152;89;20945;-70
2021/10/11 09:11:14;;;;;;;36.28;21.42;;;;;;;7.51;68.30;101371.33;1592096;89;20986;-70
2021/10/11 09:13:48;;;;;;;39.88;22.90;;;;;;;7.55;68.30;101367.52;1637885;87;20883;-70
2021/10/11 09:16:29;;;;;;;38.48;21.77;;;;;;;7.60;68.29;101364.98;1591832;89;20891;-70
2021/10/11 09:19:29;;;;;;;41.63;21.37;;;;;;;7.66;68.33;101366.73;1570137;90;20962;-70
2021/10/11 09:21:46;;;;;;;36.28;22.00;;;;;;;7.73;68.34;101370.66;1584239;89;20951;-70
2021/10/11 09:24:15;;;;;;;42.40;23.90;;;;;;;7.78;68.27;101374.13;1576035;88;20950;-70
2021/10/11 09:26:45;;;;;;;44.75;24.32;;;;;;;7.82;68.29;101369.41;1595157;89;20939;-70
2021/10/11 09:29:12;;;;;;;42.30;23.67;;;;;;;7.87;68.31;101378.03;1593226;89;20962;-70
2021/10/11 09:31:47;;;;;;;43.40;25.17;;;;;;;7.94;68.32;101378.94;1600212;89;20979;-70
2021/10/11 09:34:20;;;;;;;41.28;23.35;;;;;;;8.02;68.32;101374.70;1596378;89;21404;-70
2021/10/11 09:37:03;;;;;;;45.08;23.87;;;;;;;8.08;68.34;101370.88;1595392;89;20998;-70
2021/10/11 09:39:35;;;;;;;36.30;22.42;;;;;;;8.16;68.30;101368.35;1533382;88;5000541;-70
2021/10/11 09:42:03;;;;;;;44.53;22.87;;;;;;;8.20;68.20;101364.52;1587998;89;20939;-70
2021/10/11 09:44:32;;;;;;;38.35;22.95;;;;;;;8.25;68.25;101362.83;1582179;88;20914;-70
2021/10/11 09:47:08;;;;;;;45.70;23.83;;;;;;;8.34;68.29;101363.31;1592047;88;21456;-70
2021/10/11 09:49:31;;;;;;;43.10;24.07;;;;;;;8.43;68.30;101356.91;1603329;86;21391;-70
2021/10/11 09:51:57;;;;;;;40.60;24.23;;;;;;;8.50;68.30;101355.23;1556363;90;20943;-70
2021/10/11 09:54:24;;;;;;;43.17;25.07;;;;;;;8.61;68.28;101356.13;1587600;88;20891;-70
2021/10/11 09:56:50;;;;;;;;;;;;;;;8.67;68.13;101358.73;1597947;87;20974;-70
2021/10/11 09:59:17;;;;;;;35.90;21.02;;;;;;;8.73;68.24;101343.29;1596628;87;20204;-70
2021/10/11 10:01:46;;;;;;;42.83;22.20;;;;;;;8.83;68.29;101350.20;1590563;88;21029;-70
2021/10/11 10:04:18;;;;;;;33.40;21.25;;;;;;;8.95;68.29;101342.89;1595623;89;20997;-70
2021/10/11 10:06:46;;;;;;;33.50;20.70;;;;;;;9.04;68.24;101335.17;1589019;89;21144;-70
2021/10/11 10:09:15;;;;;;;33.88;20.02;;;;;;;9.12;68.15;101323.58;1594810;88;21092;-70
2021/10/11 10:11:41;;;;;;;33.48;20.32;;;;;;;9.14;68.12;101315.41;1628623;86;21356;-70
2021/10/11 10:14:20;;;;;;;33.63;20.90;;;;;;;9.18;68.11;101308.11;1604351;86;21075;-70
2021/10/11 10:16:52;;;;;;;39.13;21.07;;;;;;;9.24;68.16;101308.97;1628732;85;21120;-70
2021/10/11 10:19:23;;;;;;;35.00;21.33;;;;;;;9.31;68.13;101320.59;1632947;86;21049;-70
2021/10/11 10:21:51;;;;;;;33.58;21.05;;;;;;;9.37;68.13;101316.69;1625537;86;20945;-70
2021/10/11 10:24:29;;;;;;;36.53;22.97;;;;;;;9.45;68.12;101311.09;1627880;86;21434;-70
2021/10/11 10:27:04;;;;;;;33.60;20.70;;;;;;;9.54;68.17;101305.94;1640693;86;21036;-70
2021/10/11 10:29:44;;;;;;;38.30;22.42;;;;;;;9.62;68.13;101314.53;1646169;86;21058;-70
2021/10/11 10:32:19;;;;;;;37.15;22.67;;;;;;;9.70;68.09;101316.67;1637756;85;20909;-71
2021/10/11 10:34:59;;;;;;;33.75;21.20;;;;;;;9.81;68.04;101316.66;1645835;85;20951;-70
2021/10/11 10:37:37;;;;;;;30.27;19.70;;;;;;;9.84;67.97;101318.81;1639227;86;20938;-70
2021/10/11 10:40:16;;;;;;;32.20;19.82;;;;;;;9.89;67.91;101309.30;1645371;85;20958;-71
2021/10/11 10:42:49;;;;;;;29.60;19.40;;;;;;;9.94;67.92;101297.66;1639459;85;24290;-71
2021/10/11 10:45:22;;;;;;;36.70;20.90;;;;;;;9.98;67.93;101298.09;1642703;85;20938;-71
2021/10/11 10:47:50;;;;;;;31.48;19.42;;;;;;;10.05;67.91;101301.52;1639107;86;21179;-71
2021/10/11 10:50:20;;;;;;;40.33;20.30;;;;;;;10.04;67.85;101292.91;1622874;86;20991;-71
2021/10/11 10:52:53;;;;;;;32.15;19.73;;;;;;;10.03;67.82;101288.60;1642787;86;20934;-71
2021/10/11 10:55:20;;;;;;;29.40;18.65;;;;;;;10.00;67.85;101287.75;1644565;85;20934;-71
2021/10/11 10:57:46;;;;;;;38.60;20.10;;;;;;;10.01;67.82;101288.18;1604501;88;20994;-71
2021/10/11 11:00:17;;;;;;;31.27;19.47;;;;;;;10.00;67.84;101286.03;1637819;86;20870;-71
2021/10/11 11:02:47;;;;;;;33.02;20.08;;;;;;;10.00;67.83;101274.40;1642039;86;20938;-71
2021/10/11 11:05:14;;;;;;;33.42;19.95;;;;;;;10.07;67.97;101271.36;1635194;86;20903;-70
2021/10/11 11:07:42;;;;;;;;;;;;;;;10.16;67.90;101273.48;1637038;86;20931;-70
2021/10/11 11:10:17;;;;;;;31.45;18.92;;;;;;;10.27;67.76;101269.60;1650780;85;20529;-70
2021/10/11 11:12:59;;;;;;;35.08;20.50;;;;;;;10.37;67.90;101272.58;1605551;88;20953;-71
2021/10/11 11:15:38;;;;;;;28.87;18.85;;;;;;;10.41;67.71;101266.48;1593905;88;20985;-71
2021/10/11 11:18:11;;;;;;;33.00;19.55;;;;;;;10.38;67.61;101264.38;1596437;88;20952;-71
2021/10/11 11:20:39;;;;;;;31.50;18.80;;;;;;;10.34;67.60;101261.39;1593874;89;21010;-71